Loraine, North Dakota
Current Conditions -  °F | °C
As of 9:08 PM on Tuesday 25 Nov 2014 (Local Time) from KMIB Reporting Station
Overcast Overcast  
Wind Chill: -4°   Ceiling: 800
Heat Index: 10°   Visibility: 10mi
Dew Point:   Wind: 12mph
Humidity: 85%   Direction: 20°NNE
Pressure: 30.08"   Gusts: NA
Location:  48.7974°N, 101.602°W
Report Text: KMIB 260308Z AUTO 02010KT 10SM SCT003 OVC008 M12/M14 A3008 RMK AO2 VIS 1/2 RWY29 DZB0258 CIG 002V008
Loading
Personal Weather Stations






























Interactive Weather Map New forecast layout! Learn more

10-Day Weather Forecast

Advertisements
Track Severe Weather on mobile